Forside
METAR-TAF:

METAR-TAF

Lufthavne :

Russellville Regional Airport

Russellville, Arkansas, USA

Breddekreds: 35-15-32N, længdekreds: 093-05-36W, højde: 123 m

Aktuelle vejr

Denne rapport blev lavet for 1 time og 5 minutter siden, kl. 22:53 UTC
Vind 3 kt fra vestnordvest
Temperatur 2°C
Fugtighed 55%
Tryk 1027 hPa
Sigt: 16.1 km
Brudte skyer i en højde af 6000 ft
Overskyet i en højde af 7000 ft

METAR: KRUE 142253Z AUTO 30003KT 10SM BKN060 OVC070 02/M06 A3034 RMK AO2 SLP275 T00171056

Tid: 17:58 (23:58 UTC)


TAF: fraværende

Vejrobservationer og prognoser fra mere end 4000 lufthavne (METAR og TAF).

De gule og røde prikker repræsenterer de meteorologiske stationer.

Flyt musen over at se navnet på stationen.

Så klik over at se vejr observationer og prognoser.

At skifte det kort: Klik på de grønne knapper med et sort kors for at zoome ind; på den grønne knap med en bindestreg for at zoome ud; eller på de grønne pile for tilstødende kort.


METAR-TAF: